sensor_id;sensor_type;location;lat;lon;timestamp;temperature;humidity
56234;DHT22;42141;53.240;6.580;2023-02-26T00:01:24;2.20;99.90
56234;DHT22;42141;53.240;6.580;2023-02-26T00:03:51;3.40;99.90
56234;DHT22;42141;53.240;6.580;2023-02-26T00:06:18;2.30;99.90
56234;DHT22;42141;53.240;6.580;2023-02-26T00:08:44;3.20;99.90
56234;DHT22;42141;53.240;6.580;2023-02-26T00:11:10;2.30;99.90
56234;DHT22;42141;53.240;6.580;2023-02-26T00:13:38;2.30;99.90
56234;DHT22;42141;53.240;6.580;2023-02-26T00:18:58;2.20;99.90
56234;DHT22;42141;53.240;6.580;2023-02-26T00:21:29;2.20;99.90
56234;DHT22;42141;53.240;6.580;2023-02-26T00:23:56;2.10;99.90
56234;DHT22;42141;53.240;6.580;2023-02-26T00:26:24;2.10;99.90
56234;DHT22;42141;53.240;6.580;2023-02-26T00:28:50;2.10;99.90
56234;DHT22;42141;53.240;6.580;2023-02-26T00:31:16;2.10;99.90
56234;DHT22;42141;53.240;6.580;2023-02-26T00:33:43;2.10;99.90
56234;DHT22;42141;53.240;6.580;2023-02-26T00:41:36;2.10;98.20
56234;DHT22;42141;53.240;6.580;2023-02-26T00:44:04;2.40;99.10
56234;DHT22;42141;53.240;6.580;2023-02-26T00:49:36;2.10;99.90
56234;DHT22;42141;53.240;6.580;2023-02-26T00:52:14;2.00;99.90
56234;DHT22;42141;53.240;6.580;2023-02-26T00:54:41;3.40;99.90
56234;DHT22;42141;53.240;6.580;2023-02-26T00:57:07;1.90;99.90
56234;DHT22;42141;53.240;6.580;2023-02-26T00:59:32;1.90;99.90
56234;DHT22;42141;53.240;6.580;2023-02-26T01:01:58;1.80;99.90
56234;DHT22;42141;53.240;6.580;2023-02-26T01:04:24;1.70;99.90
56234;DHT22;42141;53.240;6.580;2023-02-26T01:06:54;1.60;99.90
56234;DHT22;42141;53.240;6.580;2023-02-26T01:09:27;1.50;99.90
56234;DHT22;42141;53.240;6.580;2023-02-26T01:11:53;1.40;99.90
56234;DHT22;42141;53.240;6.580;2023-02-26T01:14:20;1.40;99.90
56234;DHT22;42141;53.240;6.580;2023-02-26T01:20:01;1.20;99.90
56234;DHT22;42141;53.240;6.580;2023-02-26T01:22:47;1.10;99.90
56234;DHT22;42141;53.240;6.580;2023-02-26T01:27:51;0.90;99.90
56234;DHT22;42141;53.240;6.580;2023-02-26T01:30:17;0.90;99.90
56234;DHT22;42141;53.240;6.580;2023-02-26T01:33:50;0.80;99.90
56234;DHT22;42141;53.240;6.580;2023-02-26T01:36:23;0.80;99.90
56234;DHT22;42141;53.240;6.580;2023-02-26T01:44:57;1.50;99.90
56234;DHT22;42141;53.240;6.580;2023-02-26T01:47:47;-0.10;99.90
56234;DHT22;42141;53.240;6.580;2023-02-26T01:50:16;0.50;99.90
56234;DHT22;42141;53.240;6.580;2023-02-26T01:55:20;0.40;99.90
56234;DHT22;42141;53.240;6.580;2023-02-26T01:57:47;0.40;99.90
56234;DHT22;42141;53.240;6.580;2023-02-26T02:00:15;1.90;99.90
56234;DHT22;42141;53.240;6.580;2023-02-26T02:02:41;0.30;99.90
56234;DHT22;42141;53.240;6.580;2023-02-26T02:05:33;0.30;99.90
56234;DHT22;42141;53.240;6.580;2023-02-26T02:08:00;0.20;99.90
56234;DHT22;42141;53.240;6.580;2023-02-26T02:10:27;0.20;99.90
56234;DHT22;42141;53.240;6.580;2023-02-26T02:13:09;0.20;99.90
56234;DHT22;42141;53.240;6.580;2023-02-26T02:15:45;0.10;99.90
56234;DHT22;42141;53.240;6.580;2023-02-26T02:18:51;0.00;99.90
56234;DHT22;42141;53.240;6.580;2023-02-26T02:21:27;0.10;99.90
56234;DHT22;42141;53.240;6.580;2023-02-26T02:32:07;0.00;99.90
56234;DHT22;42141;53.240;6.580;2023-02-26T02:34:59;-0.10;99.90
56234;DHT22;42141;53.240;6.580;2023-02-26T02:37:53;-0.10;99.90
56234;DHT22;42141;53.240;6.580;2023-02-26T02:40:31;-0.10;99.90
56234;DHT22;42141;53.240;6.580;2023-02-26T02:43:03;-0.20;99.90
56234;DHT22;42141;53.240;6.580;2023-02-26T02:46:01;-0.20;99.90
56234;DHT22;42141;53.240;6.580;2023-02-26T02:48:32;-0.20;99.90
56234;DHT22;42141;53.240;6.580;2023-02-26T02:51:28;-0.20;99.90
56234;DHT22;42141;53.240;6.580;2023-02-26T02:56:37;-0.30;99.90
56234;DHT22;42141;53.240;6.580;2023-02-26T03:01:36;-0.30;99.90
56234;DHT22;42141;53.240;6.580;2023-02-26T03:04:12;-0.30;99.90
56234;DHT22;42141;53.240;6.580;2023-02-26T03:06:40;-0.30;99.90
56234;DHT22;42141;53.240;6.580;2023-02-26T03:09:08;-0.30;99.90
56234;DHT22;42141;53.240;6.580;2023-02-26T03:11:34;-0.30;99.90
56234;DHT22;42141;53.240;6.580;2023-02-26T03:14:01;-0.30;99.90
56234;DHT22;42141;53.240;6.580;2023-02-26T03:19:28;-0.40;99.90
56234;DHT22;42141;53.240;6.580;2023-02-26T03:22:12;-0.40;99.90
56234;DHT22;42141;53.240;6.580;2023-02-26T03:24:47;-0.40;99.90
56234;DHT22;42141;53.240;6.580;2023-02-26T03:27:27;-0.50;99.90
56234;DHT22;42141;53.240;6.580;2023-02-26T03:33:02;-0.60;99.90
56234;DHT22;42141;53.240;6.580;2023-02-26T03:35:31;-0.60;99.90
56234;DHT22;42141;53.240;6.580;2023-02-26T03:38:03;-0.70;99.90
56234;DHT22;42141;53.240;6.580;2023-02-26T03:44:04;-0.70;99.90
56234;DHT22;42141;53.240;6.580;2023-02-26T03:46:13;-0.50;99.90
56234;DHT22;42141;53.240;6.580;2023-02-26T03:48:42;-0.50;99.90
56234;DHT22;42141;53.240;6.580;2023-02-26T03:51:10;-0.40;99.90
56234;DHT22;42141;53.240;6.580;2023-02-26T03:53:53;-0.40;99.90
56234;DHT22;42141;53.240;6.580;2023-02-26T03:56:44;-0.30;99.90
56234;DHT22;42141;53.240;6.580;2023-02-26T03:59:11;-0.20;99.90
56234;DHT22;42141;53.240;6.580;2023-02-26T04:02:57;-0.10;99.90
56234;DHT22;42141;53.240;6.580;2023-02-26T04:04:57;-0.10;99.90
56234;DHT22;42141;53.240;6.580;2023-02-26T04:07:25;-0.10;99.90
56234;DHT22;42141;53.240;6.580;2023-02-26T04:09:51;0.00;99.90
56234;DHT22;42141;53.240;6.580;2023-02-26T04:12:25;1.30;99.90
56234;DHT22;42141;53.240;6.580;2023-02-26T04:14:51;0.10;99.90
56234;DHT22;42141;53.240;6.580;2023-02-26T04:17:17;0.10;99.90
56234;DHT22;42141;53.240;6.580;2023-02-26T04:19:43;0.00;99.90
56234;DHT22;42141;53.240;6.580;2023-02-26T04:22:11;0.00;99.90
56234;DHT22;42141;53.240;6.580;2023-02-26T04:24:37;0.00;99.90
56234;DHT22;42141;53.240;6.580;2023-02-26T04:27:03;-0.10;99.90
56234;DHT22;42141;53.240;6.580;2023-02-26T04:29:28;-0.10;99.90
56234;DHT22;42141;53.240;6.580;2023-02-26T04:31:54;-0.10;99.90
56234;DHT22;42141;53.240;6.580;2023-02-26T04:34:20;0.60;99.90
56234;DHT22;42141;53.240;6.580;2023-02-26T04:36:45;-0.40;99.90
56234;DHT22;42141;53.240;6.580;2023-02-26T04:39:11;0.70;99.90
56234;DHT22;42141;53.240;6.580;2023-02-26T04:41:38;1.40;99.90
56234;DHT22;42141;53.240;6.580;2023-02-26T04:44:04;0.50;99.90
56234;DHT22;42141;53.240;6.580;2023-02-26T04:46:31;-0.30;99.90
56234;DHT22;42141;53.240;6.580;2023-02-26T04:48:57;0.80;99.90
56234;DHT22;42141;53.240;6.580;2023-02-26T04:51:23;-0.30;99.90
56234;DHT22;42141;53.240;6.580;2023-02-26T04:53:49;-0.30;99.90
56234;DHT22;42141;53.240;6.580;2023-02-26T04:56:15;-0.40;99.90
56234;DHT22;42141;53.240;6.580;2023-02-26T04:58:41;-0.40;99.90
56234;DHT22;42141;53.240;6.580;2023-02-26T05:01:07;-0.30;99.90
56234;DHT22;42141;53.240;6.580;2023-02-26T05:03:32;-0.30;99.90
56234;DHT22;42141;53.240;6.580;2023-02-26T05:05:58;0.80;99.90
56234;DHT22;42141;53.240;6.580;2023-02-26T05:08:24;-0.40;99.90
56234;DHT22;42141;53.240;6.580;2023-02-26T05:10:50;0.50;99.90
56234;DHT22;42141;53.240;6.580;2023-02-26T05:13:18;-0.40;99.90
56234;DHT22;42141;53.240;6.580;2023-02-26T05:15:44;1.20;99.90
56234;DHT22;42141;53.240;6.580;2023-02-26T05:18:10;-0.50;99.90
56234;DHT22;42141;53.240;6.580;2023-02-26T05:20:36;0.90;99.90
56234;DHT22;42141;53.240;6.580;2023-02-26T05:23:01;-0.50;99.90
56234;DHT22;42141;53.240;6.580;2023-02-26T05:25:27;-0.50;99.90
56234;DHT22;42141;53.240;6.580;2023-02-26T05:27:53;-0.50;99.90
56234;DHT22;42141;53.240;6.580;2023-02-26T05:30:19;-0.50;99.90
56234;DHT22;42141;53.240;6.580;2023-02-26T05:32:44;-0.40;99.90
56234;DHT22;42141;53.240;6.580;2023-02-26T05:35:10;1.20;99.90
56234;DHT22;42141;53.240;6.580;2023-02-26T05:37:37;0.60;99.90
56234;DHT22;42141;53.240;6.580;2023-02-26T05:40:04;1.10;99.90
56234;DHT22;42141;53.240;6.580;2023-02-26T05:42:30;-0.50;99.90
56234;DHT22;42141;53.240;6.580;2023-02-26T05:44:58;-0.50;99.90
56234;DHT22;42141;53.240;6.580;2023-02-26T05:47:24;-0.50;99.90
56234;DHT22;42141;53.240;6.580;2023-02-26T05:49:50;-0.50;99.90
56234;DHT22;42141;53.240;6.580;2023-02-26T05:52:16;-0.60;99.90
56234;DHT22;42141;53.240;6.580;2023-02-26T05:54:41;-0.60;99.90
56234;DHT22;42141;53.240;6.580;2023-02-26T05:57:07;-0.60;99.90
56234;DHT22;42141;53.240;6.580;2023-02-26T05:59:33;-0.60;99.90
56234;DHT22;42141;53.240;6.580;2023-02-26T06:01:58;-0.60;99.90
56234;DHT22;42141;53.240;6.580;2023-02-26T06:04:24;-0.60;99.90
56234;DHT22;42141;53.240;6.580;2023-02-26T06:06:50;-0.60;99.90
56234;DHT22;42141;53.240;6.580;2023-02-26T06:09:15;0.90;99.90
56234;DHT22;42141;53.240;6.580;2023-02-26T06:11:41;-0.60;99.90
56234;DHT22;42141;53.240;6.580;2023-02-26T06:14:07;-0.60;99.90
56234;DHT22;42141;53.240;6.580;2023-02-26T06:16:33;-0.60;99.90
56234;DHT22;42141;53.240;6.580;2023-02-26T06:19:01;-0.50;99.90
56234;DHT22;42141;53.240;6.580;2023-02-26T06:21:27;-0.60;99.90
56234;DHT22;42141;53.240;6.580;2023-02-26T06:23:52;-0.60;99.90
56234;DHT22;42141;53.240;6.580;2023-02-26T06:26:18;-0.70;99.90
56234;DHT22;42141;53.240;6.580;2023-02-26T06:28:44;0.70;99.90
56234;DHT22;42141;53.240;6.580;2023-02-26T06:31:09;-0.70;99.90
56234;DHT22;42141;53.240;6.580;2023-02-26T06:33:35;-0.70;99.90
56234;DHT22;42141;53.240;6.580;2023-02-26T06:36:01;0.50;99.90
56234;DHT22;42141;53.240;6.580;2023-02-26T06:38:27;-0.50;99.90
56234;DHT22;42141;53.240;6.580;2023-02-26T06:40:53;-0.80;99.90
56234;DHT22;42141;53.240;6.580;2023-02-26T06:43:19;-0.90;99.90
56234;DHT22;42141;53.240;6.580;2023-02-26T06:45:45;-0.90;99.90
56234;DHT22;42141;53.240;6.580;2023-02-26T06:48:11;-0.90;99.90
56234;DHT22;42141;53.240;6.580;2023-02-26T06:50:37;-0.80;99.90
56234;DHT22;42141;53.240;6.580;2023-02-26T06:53:02;0.10;99.90
56234;DHT22;42141;53.240;6.580;2023-02-26T06:55:29;-0.80;99.90
56234;DHT22;42141;53.240;6.580;2023-02-26T06:57:55;-0.80;99.90
56234;DHT22;42141;53.240;6.580;2023-02-26T07:00:23;-0.80;99.90
56234;DHT22;42141;53.240;6.580;2023-02-26T07:02:49;-0.80;99.90
56234;DHT22;42141;53.240;6.580;2023-02-26T07:05:15;-0.70;99.90
56234;DHT22;42141;53.240;6.580;2023-02-26T07:07:41;-0.60;99.90
56234;DHT22;42141;53.240;6.580;2023-02-26T07:10:08;0.10;99.90
56234;DHT22;42141;53.240;6.580;2023-02-26T07:12:34;-0.60;99.90
56234;DHT22;42141;53.240;6.580;2023-02-26T07:15:00;1.00;99.90
56234;DHT22;42141;53.240;6.580;2023-02-26T07:17:26;-0.60;99.90
56234;DHT22;42141;53.240;6.580;2023-02-26T07:19:51;-0.60;99.90
56234;DHT22;42141;53.240;6.580;2023-02-26T07:22:19;-0.50;99.90
56234;DHT22;42141;53.240;6.580;2023-02-26T07:24:45;0.30;99.90
56234;DHT22;42141;53.240;6.580;2023-02-26T07:27:11;-0.50;99.90
56234;DHT22;42141;53.240;6.580;2023-02-26T07:29:37;-0.40;99.90
56234;DHT22;42141;53.240;6.580;2023-02-26T07:32:03;-0.30;99.90
56234;DHT22;42141;53.240;6.580;2023-02-26T07:34:29;-0.20;99.90
56234;DHT22;42141;53.240;6.580;2023-02-26T07:36:54;-0.20;99.90
56234;DHT22;42141;53.240;6.580;2023-02-26T07:39:20;-0.10;99.90
56234;DHT22;42141;53.240;6.580;2023-02-26T07:41:46;0.00;99.90
56234;DHT22;42141;53.240;6.580;2023-02-26T07:44:12;0.00;99.90
56234;DHT22;42141;53.240;6.580;2023-02-26T07:46:37;0.00;99.90
56234;DHT22;42141;53.240;6.580;2023-02-26T07:49:03;0.10;99.90
56234;DHT22;42141;53.240;6.580;2023-02-26T07:51:29;0.10;99.90
56234;DHT22;42141;53.240;6.580;2023-02-26T07:53:54;0.10;99.90
56234;DHT22;42141;53.240;6.580;2023-02-26T07:56:20;0.00;99.90
56234;DHT22;42141;53.240;6.580;2023-02-26T07:58:46;0.10;99.90
56234;DHT22;42141;53.240;6.580;2023-02-26T08:01:11;1.10;99.90
56234;DHT22;42141;53.240;6.580;2023-02-26T08:03:37;0.80;99.90
56234;DHT22;42141;53.240;6.580;2023-02-26T08:06:03;0.40;99.90
56234;DHT22;42141;53.240;6.580;2023-02-26T08:08:29;0.50;99.90
56234;DHT22;42141;53.240;6.580;2023-02-26T08:10:58;1.90;99.90
56234;DHT22;42141;53.240;6.580;2023-02-26T08:13:24;1.10;99.90
56234;DHT22;42141;53.240;6.580;2023-02-26T08:15:50;1.60;99.90
56234;DHT22;42141;53.240;6.580;2023-02-26T08:18:18;3.30;99.90
56234;DHT22;42141;53.240;6.580;2023-02-26T08:20:45;2.50;99.90
56234;DHT22;42141;53.240;6.580;2023-02-26T08:23:11;2.80;99.90
56234;DHT22;42141;53.240;6.580;2023-02-26T08:25:37;3.20;99.90
56234;DHT22;42141;53.240;6.580;2023-02-26T08:28:03;4.20;99.90
56234;DHT22;42141;53.240;6.580;2023-02-26T08:30:30;3.60;99.90
56234;DHT22;42141;53.240;6.580;2023-02-26T08:32:56;3.60;99.90
56234;DHT22;42141;53.240;6.580;2023-02-26T08:35:22;3.60;99.90
56234;DHT22;42141;53.240;6.580;2023-02-26T08:37:48;3.60;99.90
56234;DHT22;42141;53.240;6.580;2023-02-26T08:40:14;3.60;99.90
56234;DHT22;42141;53.240;6.580;2023-02-26T08:42:39;4.60;99.90
56234;DHT22;42141;53.240;6.580;2023-02-26T08:45:06;4.00;99.90
56234;DHT22;42141;53.240;6.580;2023-02-26T08:47:32;3.90;99.90
56234;DHT22;42141;53.240;6.580;2023-02-26T08:49:57;4.00;99.90
56234;DHT22;42141;53.240;6.580;2023-02-26T08:52:23;4.20;99.90
56234;DHT22;42141;53.240;6.580;2023-02-26T08:54:49;4.50;99.90
56234;DHT22;42141;53.240;6.580;2023-02-26T08:57:15;4.70;99.90
56234;DHT22;42141;53.240;6.580;2023-02-26T08:59:42;4.90;99.90
56234;DHT22;42141;53.240;6.580;2023-02-26T09:02:10;5.00;99.90
56234;DHT22;42141;53.240;6.580;2023-02-26T09:04:36;5.50;99.90
56234;DHT22;42141;53.240;6.580;2023-02-26T09:07:01;6.10;99.90
56234;DHT22;42141;53.240;6.580;2023-02-26T09:09:27;5.50;99.90
56234;DHT22;42141;53.240;6.580;2023-02-26T09:11:53;5.60;99.90
56234;DHT22;42141;53.240;6.580;2023-02-26T09:14:18;6.60;99.90
56234;DHT22;42141;53.240;6.580;2023-02-26T09:16:44;5.70;99.90
56234;DHT22;42141;53.240;6.580;2023-02-26T09:19:10;6.40;99.90
56234;DHT22;42141;53.240;6.580;2023-02-26T09:21:36;5.70;99.90
56234;DHT22;42141;53.240;6.580;2023-02-26T09:24:02;5.70;99.90
56234;DHT22;42141;53.240;6.580;2023-02-26T09:26:28;5.80;99.90
56234;DHT22;42141;53.240;6.580;2023-02-26T09:28:53;5.80;99.90
56234;DHT22;42141;53.240;6.580;2023-02-26T09:31:19;5.60;99.90
56234;DHT22;42141;53.240;6.580;2023-02-26T09:33:45;6.00;99.90
56234;DHT22;42141;53.240;6.580;2023-02-26T09:36:10;5.90;99.90
56234;DHT22;42141;53.240;6.580;2023-02-26T09:38:36;5.80;99.90
56234;DHT22;42141;53.240;6.580;2023-02-26T09:41:20;5.90;99.90
56234;DHT22;42141;53.240;6.580;2023-02-26T09:44:18;5.90;99.90
56234;DHT22;42141;53.240;6.580;2023-02-26T09:46:50;6.00;99.90
56234;DHT22;42141;53.240;6.580;2023-02-26T09:49:31;6.00;99.90
56234;DHT22;42141;53.240;6.580;2023-02-26T09:52:14;6.20;99.90
56234;DHT22;42141;53.240;6.580;2023-02-26T09:54:45;6.30;99.90
56234;DHT22;42141;53.240;6.580;2023-02-26T09:57:30;7.20;99.90
56234;DHT22;42141;53.240;6.580;2023-02-26T09:59:56;6.60;99.90
56234;DHT22;42141;53.240;6.580;2023-02-26T10:02:44;6.60;99.90
56234;DHT22;42141;53.240;6.580;2023-02-26T10:08:05;6.80;99.90
56234;DHT22;42141;53.240;6.580;2023-02-26T10:16:10;7.10;99.90
56234;DHT22;42141;53.240;6.580;2023-02-26T10:18:43;7.70;99.90
56234;DHT22;42141;53.240;6.580;2023-02-26T10:23:59;7.30;99.90
56234;DHT22;42141;53.240;6.580;2023-02-26T10:26:32;7.10;99.90
56234;DHT22;42141;53.240;6.580;2023-02-26T10:32:02;6.60;99.90
56234;DHT22;42141;53.240;6.580;2023-02-26T10:34:50;7.90;99.90
56234;DHT22;42141;53.240;6.580;2023-02-26T10:37:56;6.30;99.90
56234;DHT22;42141;53.240;6.580;2023-02-26T10:40:33;6.20;99.90
56234;DHT22;42141;53.240;6.580;2023-02-26T10:43:24;6.10;99.90
56234;DHT22;42141;53.240;6.580;2023-02-26T10:48:54;6.10;99.90
56234;DHT22;42141;53.240;6.580;2023-02-26T10:51:33;6.10;99.90
56234;DHT22;42141;53.240;6.580;2023-02-26T10:56:51;6.50;99.90
56234;DHT22;42141;53.240;6.580;2023-02-26T10:59:16;6.90;99.90
56234;DHT22;42141;53.240;6.580;2023-02-26T11:01:42;6.70;99.90
56234;DHT22;42141;53.240;6.580;2023-02-26T11:04:16;6.70;99.90
56234;DHT22;42141;53.240;6.580;2023-02-26T11:06:58;6.60;99.90
56234;DHT22;42141;53.240;6.580;2023-02-26T11:09:35;6.40;99.10
56234;DHT22;42141;53.240;6.580;2023-02-26T11:12:14;6.40;99.60
56234;DHT22;42141;53.240;6.580;2023-02-26T11:14:47;6.00;99.90
56234;DHT22;42141;53.240;6.580;2023-02-26T11:17:21;5.90;99.90
56234;DHT22;42141;53.240;6.580;2023-02-26T11:20:17;5.90;99.90
56234;DHT22;42141;53.240;6.580;2023-02-26T11:22:52;5.90;99.90
56234;DHT22;42141;53.240;6.580;2023-02-26T11:25:27;5.80;99.90
56234;DHT22;42141;53.240;6.580;2023-02-26T11:28:52;6.00;99.90
56234;DHT22;42141;53.240;6.580;2023-02-26T11:30:52;7.10;99.90
56234;DHT22;42141;53.240;6.580;2023-02-26T11:33:35;6.40;99.90
56234;DHT22;42141;53.240;6.580;2023-02-26T11:36:08;6.50;99.90
56234;DHT22;42141;53.240;6.580;2023-02-26T11:38:34;6.70;99.90
56234;DHT22;42141;53.240;6.580;2023-02-26T11:41:01;6.70;99.60
56234;DHT22;42141;53.240;6.580;2023-02-26T11:43:36;6.80;99.90
56234;DHT22;42141;53.240;6.580;2023-02-26T11:46:04;6.90;99.50
56234;DHT22;42141;53.240;6.580;2023-02-26T11:48:38;6.80;99.80
56234;DHT22;42141;53.240;6.580;2023-02-26T11:51:06;6.90;99.40
56234;DHT22;42141;53.240;6.580;2023-02-26T11:53:35;6.90;99.60
56234;DHT22;42141;53.240;6.580;2023-02-26T11:56:12;6.90;99.60
56234;DHT22;42141;53.240;6.580;2023-02-26T11:58:40;6.70;99.10
56234;DHT22;42141;53.240;6.580;2023-02-26T12:01:10;7.10;99.80
56234;DHT22;42141;53.240;6.580;2023-02-26T12:03:38;6.90;99.90
56234;DHT22;42141;53.240;6.580;2023-02-26T12:06:06;7.80;99.90
56234;DHT22;42141;53.240;6.580;2023-02-26T12:08:38;7.20;99.30
56234;DHT22;42141;53.240;6.580;2023-02-26T12:14:20;7.50;97.80
56234;DHT22;42141;53.240;6.580;2023-02-26T12:22:48;7.60;98.10
56234;DHT22;42141;53.240;6.580;2023-02-26T12:34:02;7.30;98.70
56234;DHT22;42141;53.240;6.580;2023-02-26T12:45:19;8.00;98.30
56234;DHT22;42141;53.240;6.580;2023-02-26T12:50:47;8.30;97.60
56234;DHT22;42141;53.240;6.580;2023-02-26T12:59:23;9.40;97.00
56234;DHT22;42141;53.240;6.580;2023-02-26T13:21:05;8.70;96.30
56234;DHT22;42141;53.240;6.580;2023-02-26T13:23:54;8.70;96.20
56234;DHT22;42141;53.240;6.580;2023-02-26T13:26:22;8.60;95.40
56234;DHT22;42141;53.240;6.580;2023-02-26T13:28:55;7.90;96.40
56234;DHT22;42141;53.240;6.580;2023-02-26T13:31:35;7.60;97.00
56234;DHT22;42141;53.240;6.580;2023-02-26T13:34:13;7.90;97.30
56234;DHT22;42141;53.240;6.580;2023-02-26T13:36:40;7.70;97.60
56234;DHT22;42141;53.240;6.580;2023-02-26T13:48:19;7.80;96.60
56234;DHT22;42141;53.240;6.580;2023-02-26T13:55:56;7.80;94.50
56234;DHT22;42141;53.240;6.580;2023-02-26T13:58:38;7.60;95.20
56234;DHT22;42141;53.240;6.580;2023-02-26T14:01:33;7.70;95.50
56234;DHT22;42141;53.240;6.580;2023-02-26T14:06:45;8.10;94.10
56234;DHT22;42141;53.240;6.580;2023-02-26T14:12:31;8.00;94.10
56234;DHT22;42141;53.240;6.580;2023-02-26T14:23:32;7.10;94.90
56234;DHT22;42141;53.240;6.580;2023-02-26T14:25:38;7.00;96.00
56234;DHT22;42141;53.240;6.580;2023-02-26T14:31:20;7.20;95.90
56234;DHT22;42141;53.240;6.580;2023-02-26T14:33:56;7.20;94.80
56234;DHT22;42141;53.240;6.580;2023-02-26T14:39:27;7.00;96.00
56234;DHT22;42141;53.240;6.580;2023-02-26T14:41:58;6.90;96.60
56234;DHT22;42141;53.240;6.580;2023-02-26T14:44:31;6.80;97.00
56234;DHT22;42141;53.240;6.580;2023-02-26T14:46:59;6.60;96.90
56234;DHT22;42141;53.240;6.580;2023-02-26T14:49:30;7.50;97.20
56234;DHT22;42141;53.240;6.580;2023-02-26T14:58:07;6.80;96.80
56234;DHT22;42141;53.240;6.580;2023-02-26T15:00:58;7.10;96.20
56234;DHT22;42141;53.240;6.580;2023-02-26T15:17:46;7.30;95.50
56234;DHT22;42141;53.240;6.580;2023-02-26T15:25:56;7.20;96.70
56234;DHT22;42141;53.240;6.580;2023-02-26T15:28:37;7.00;96.00
56234;DHT22;42141;53.240;6.580;2023-02-26T15:31:06;6.90;96.60
56234;DHT22;42141;53.240;6.580;2023-02-26T15:33:33;7.10;97.00
56234;DHT22;42141;53.240;6.580;2023-02-26T15:36:00;6.70;97.00
56234;DHT22;42141;53.240;6.580;2023-02-26T15:38:40;6.50;95.60
56234;DHT22;42141;53.240;6.580;2023-02-26T15:41:06;6.30;95.60
56234;DHT22;42141;53.240;6.580;2023-02-26T15:43:32;7.50;96.30
56234;DHT22;42141;53.240;6.580;2023-02-26T15:45:58;6.20;96.80
56234;DHT22;42141;53.240;6.580;2023-02-26T15:48:28;5.00;96.90
56234;DHT22;42141;53.240;6.580;2023-02-26T15:51:00;6.20;97.20
56234;DHT22;42141;53.240;6.580;2023-02-26T15:53:45;6.10;97.40
56234;DHT22;42141;53.240;6.580;2023-02-26T15:56:33;6.10;97.80
56234;DHT22;42141;53.240;6.580;2023-02-26T15:59:45;6.50;98.40
56234;DHT22;42141;53.240;6.580;2023-02-26T16:01:52;5.90;98.70
56234;DHT22;42141;53.240;6.580;2023-02-26T16:04:20;5.70;98.90
56234;DHT22;42141;53.240;6.580;2023-02-26T16:06:56;5.60;99.50
56234;DHT22;42141;53.240;6.580;2023-02-26T16:09:33;5.80;99.60
56234;DHT22;42141;53.240;6.580;2023-02-26T16:12:12;5.30;99.80
56234;DHT22;42141;53.240;6.580;2023-02-26T16:14:44;5.00;99.90
56234;DHT22;42141;53.240;6.580;2023-02-26T16:17:15;5.50;99.90
56234;DHT22;42141;53.240;6.580;2023-02-26T16:19:44;5.70;99.90
56234;DHT22;42141;53.240;6.580;2023-02-26T16:24:56;5.00;99.90
56234;DHT22;42141;53.240;6.580;2023-02-26T16:27:28;5.00;99.90
56234;DHT22;42141;53.240;6.580;2023-02-26T16:29:57;4.90;99.90
56234;DHT22;42141;53.240;6.580;2023-02-26T16:32:26;4.90;99.90
56234;DHT22;42141;53.240;6.580;2023-02-26T16:34:55;4.80;99.90
56234;DHT22;42141;53.240;6.580;2023-02-26T16:39:56;4.70;99.90
56234;DHT22;42141;53.240;6.580;2023-02-26T16:45:22;6.10;99.90
56234;DHT22;42141;53.240;6.580;2023-02-26T16:47:54;5.10;99.90
56234;DHT22;42141;53.240;6.580;2023-02-26T16:50:23;4.70;99.90
56234;DHT22;42141;53.240;6.580;2023-02-26T16:53:06;4.70;99.90
56234;DHT22;42141;53.240;6.580;2023-02-26T16:55:35;4.60;99.90
56234;DHT22;42141;53.240;6.580;2023-02-26T16:58:04;4.60;99.90
56234;DHT22;42141;53.240;6.580;2023-02-26T17:00:32;4.60;99.90
56234;DHT22;42141;53.240;6.580;2023-02-26T17:03:18;4.60;99.90
56234;DHT22;42141;53.240;6.580;2023-02-26T17:06:01;5.70;99.90
56234;DHT22;42141;53.240;6.580;2023-02-26T17:11:24;5.30;99.90
56234;DHT22;42141;53.240;6.580;2023-02-26T17:14:14;4.50;99.90
56234;DHT22;42141;53.240;6.580;2023-02-26T17:16:44;4.50;99.90
56234;DHT22;42141;53.240;6.580;2023-02-26T17:19:11;4.50;99.90
56234;DHT22;42141;53.240;6.580;2023-02-26T17:21:57;4.10;99.90
56234;DHT22;42141;53.240;6.580;2023-02-26T17:24:29;4.40;99.90
56234;DHT22;42141;53.240;6.580;2023-02-26T17:26:56;4.60;99.90
56234;DHT22;42141;53.240;6.580;2023-02-26T17:29:29;5.70;99.90
56234;DHT22;42141;53.240;6.580;2023-02-26T17:31:56;4.30;99.90
56234;DHT22;42141;53.240;6.580;2023-02-26T17:34:22;4.30;99.90
56234;DHT22;42141;53.240;6.580;2023-02-26T17:36:48;4.80;99.90
56234;DHT22;42141;53.240;6.580;2023-02-26T17:39:14;4.20;99.90
56234;DHT22;42141;53.240;6.580;2023-02-26T17:41:44;4.90;99.90
56234;DHT22;42141;53.240;6.580;2023-02-26T17:44:10;5.20;99.90
56234;DHT22;42141;53.240;6.580;2023-02-26T17:46:36;4.10;99.90
56234;DHT22;42141;53.240;6.580;2023-02-26T17:49:02;4.70;99.90
56234;DHT22;42141;53.240;6.580;2023-02-26T17:51:28;4.10;99.90
56234;DHT22;42141;53.240;6.580;2023-02-26T17:53:53;5.60;99.90
56234;DHT22;42141;53.240;6.580;2023-02-26T17:56:25;4.10;99.90
56234;DHT22;42141;53.240;6.580;2023-02-26T17:58:54;4.10;99.90
56234;DHT22;42141;53.240;6.580;2023-02-26T18:01:21;5.20;99.90
56234;DHT22;42141;53.240;6.580;2023-02-26T18:03:52;4.70;99.90
56234;DHT22;42141;53.240;6.580;2023-02-26T18:06:19;3.90;99.90
56234;DHT22;42141;53.240;6.580;2023-02-26T18:08:45;3.90;99.90
56234;DHT22;42141;53.240;6.580;2023-02-26T18:11:14;3.90;99.90
56234;DHT22;42141;53.240;6.580;2023-02-26T18:13:40;3.90;99.90
56234;DHT22;42141;53.240;6.580;2023-02-26T18:16:14;4.00;99.90
56234;DHT22;42141;53.240;6.580;2023-02-26T18:18:41;3.90;99.90
56234;DHT22;42141;53.240;6.580;2023-02-26T18:21:07;3.50;99.90
56234;DHT22;42141;53.240;6.580;2023-02-26T18:23:33;3.80;99.90
56234;DHT22;42141;53.240;6.580;2023-02-26T18:25:58;5.30;99.90
56234;DHT22;42141;53.240;6.580;2023-02-26T18:28:26;3.70;99.90
56234;DHT22;42141;53.240;6.580;2023-02-26T18:30:53;3.60;99.90
56234;DHT22;42141;53.240;6.580;2023-02-26T18:33:19;4.20;99.90
56234;DHT22;42141;53.240;6.580;2023-02-26T18:35:48;3.50;99.90
56234;DHT22;42141;53.240;6.580;2023-02-26T18:38:19;4.70;99.90
56234;DHT22;42141;53.240;6.580;2023-02-26T18:40:46;3.60;99.90
56234;DHT22;42141;53.240;6.580;2023-02-26T18:43:12;4.50;99.90
56234;DHT22;42141;53.240;6.580;2023-02-26T18:45:39;3.50;99.90
56234;DHT22;42141;53.240;6.580;2023-02-26T18:48:05;3.40;99.90
56234;DHT22;42141;53.240;6.580;2023-02-26T18:50:31;3.60;99.90
56234;DHT22;42141;53.240;6.580;2023-02-26T18:52:57;3.30;99.90
56234;DHT22;42141;53.240;6.580;2023-02-26T18:55:22;3.20;99.90
56234;DHT22;42141;53.240;6.580;2023-02-26T18:57:48;3.30;99.90
56234;DHT22;42141;53.240;6.580;2023-02-26T19:00:14;4.20;99.90
56234;DHT22;42141;53.240;6.580;2023-02-26T19:02:41;3.00;99.90
56234;DHT22;42141;53.240;6.580;2023-02-26T19:05:08;3.80;99.90
56234;DHT22;42141;53.240;6.580;2023-02-26T19:07:34;2.90;99.90
56234;DHT22;42141;53.240;6.580;2023-02-26T19:10:00;2.90;99.90
56234;DHT22;42141;53.240;6.580;2023-02-26T19:12:27;2.80;99.90
56234;DHT22;42141;53.240;6.580;2023-02-26T19:14:53;2.70;99.90
56234;DHT22;42141;53.240;6.580;2023-02-26T19:17:19;3.30;99.90